Time;durP1;ratioP1;P1;durP2;ratioP2;P2;SDS_P1;SDS_P2;PMS_P1;PMS_P2;Temp;Humidity;BMP_temperature;BMP_pressure;BME280_temperature;BME280_humidity;BME280_pressure;Samples;Min_cycle;Max_cycle;Signal;HPM_P1;HPM_P2
2022/05/17 00:01:27;;;;;;;13.18;9.73;;;12.80;99.90;;;;;;7356703;32;20221;-60
2022/05/17 00:05:30;;;;;;;15.98;10.85;;;12.80;99.90;;;;;;7367783;32;20107;-61
2022/05/17 00:09:33;;;;;;;13.98;10.45;;;12.70;99.90;;;;;;7357167;32;20140;-61
2022/05/17 00:13:35;;;;;;;14.50;11.00;;;12.70;99.90;;;;;;7363246;32;20184;-61
2022/05/17 00:17:36;;;;;;;13.73;11.40;;;12.70;99.90;;;;;;7364945;32;20172;-62
2022/05/17 00:21:39;;;;;;;14.32;11.12;;;12.70;99.90;;;;;;7368157;32;20560;-62
2022/05/17 00:25:42;;;;;;;20.48;12.00;;;12.70;99.90;;;;;;7356566;32;20149;-62
2022/05/17 00:29:44;;;;;;;16.75;11.25;;;12.60;99.90;;;;;;7343795;32;20755;-62
2022/05/17 00:33:46;;;;;;;16.52;12.70;;;12.50;99.90;;;;;;7347612;32;20549;-61
2022/05/17 00:37:54;;;;;;;15.80;11.38;;;12.50;99.90;;;;;;7364845;32;20629;-60
2022/05/17 00:41:55;;;;;;;13.68;11.55;;;12.40;99.90;;;;;;7360217;32;20102;-61
2022/05/17 00:46:01;;;;;;;16.05;12.20;;;12.30;99.90;;;;;;7370615;32;20111;-61
2022/05/17 00:50:06;;;;;;;16.40;10.70;;;12.30;99.90;;;;;;7362762;32;20656;-61
2022/05/17 00:54:12;;;;;;;14.07;10.35;;;12.10;99.90;;;;;;7372787;32;20182;-60
2022/05/17 00:58:19;;;;;;;15.85;10.65;;;12.10;99.90;;;;;;7356064;32;20228;-61
2022/05/17 01:02:21;;;;;;;16.55;10.38;;;12.10;99.90;;;;;;7362082;32;20256;-61
2022/05/17 01:06:27;;;;;;;13.93;10.20;;;12.00;99.90;;;;;;7367966;32;20608;-61
2022/05/17 01:10:30;;;;;;;14.90;10.57;;;12.00;99.90;;;;;;7347556;32;20430;-61
2022/05/17 01:18:53;;;;;;;15.70;10.63;;;11.80;99.90;;;;;;7369807;32;20111;-61
2022/05/17 01:22:54;;;;;;;15.35;10.75;;;11.80;99.90;;;;;;7361366;32;20153;-61
2022/05/17 01:27:03;;;;;;;16.58;11.82;;;11.70;99.90;;;;;;7368763;32;20114;-61
2022/05/17 01:31:05;;;;;;;17.42;11.30;;;11.70;99.90;;;;;;7348433;32;20119;-61
2022/05/17 01:35:08;;;;;;;11.82;9.93;;;11.70;99.90;;;;;;7353524;32;20176;-61
2022/05/17 01:39:10;;;;;;;15.20;10.30;;;11.70;99.90;;;;;;7349551;32;20469;-61
2022/05/17 01:43:12;;;;;;;15.57;10.45;;;11.60;99.90;;;;;;7366779;32;20202;-61
2022/05/17 01:47:14;;;;;;;12.45;10.55;;;11.50;99.90;;;;;;7366347;32;20269;-61
2022/05/17 01:51:16;;;;;;;13.30;9.68;;;11.50;99.90;;;;;;7348696;32;20321;-61
2022/05/17 01:55:17;;;;;;;24.48;11.80;;;11.40;99.90;;;;;;7363420;32;20103;-61
2022/05/17 01:59:20;;;;;;;14.80;10.45;;;11.40;99.90;;;;;;7361003;32;20142;-61
2022/05/17 02:03:21;;;;;;;19.37;10.88;;;11.40;99.90;;;;;;7355360;32;20222;-61
2022/05/17 02:07:23;;;;;;;13.32;11.18;;;11.40;99.90;;;;;;7346515;32;20398;-61
2022/05/17 02:11:24;;;;;;;14.68;11.55;;;11.40;99.90;;;;;;7362304;32;20414;-61
2022/05/17 02:15:27;;;;;;;19.20;11.52;;;11.40;99.90;;;;;;7362112;32;20110;-61
2022/05/17 02:19:30;;;;;;;14.80;12.05;;;11.30;99.90;;;;;;7349743;32;20111;-61
2022/05/17 02:23:32;;;;;;;14.52;11.95;;;11.30;99.90;;;;;;7360857;32;20142;-62
2022/05/17 02:27:34;;;;;;;16.50;11.82;;;11.30;99.90;;;;;;7367390;32;20232;-61
2022/05/17 02:31:36;;;;;;;16.12;11.77;;;11.30;99.90;;;;;;7363060;32;20172;-61
2022/05/17 02:35:39;;;;;;;14.65;11.68;;;11.30;99.90;;;;;;7361843;32;20282;-61
2022/05/17 02:39:41;;;;;;;14.02;12.07;;;11.30;99.90;;;;;;7357524;32;20169;-61
2022/05/17 02:43:44;;;;;;;18.35;13.48;;;11.20;99.90;;;;;;7351874;32;20153;-61
2022/05/17 02:47:45;;;;;;;14.20;11.65;;;11.20;99.90;;;;;;7360866;32;20107;-60
2022/05/17 02:51:47;;;;;;;14.70;11.15;;;11.20;99.90;;;;;;7353098;32;20111;-60
2022/05/17 02:55:49;;;;;;;15.45;11.57;;;11.10;99.90;;;;;;7360559;32;20111;-61
2022/05/17 02:59:50;;;;;;;15.73;11.63;;;11.10;99.90;;;;;;7350324;32;20530;-60
2022/05/17 03:03:52;;;;;;;14.50;11.27;;;11.00;99.90;;;;;;7362266;32;20115;-61
2022/05/17 03:07:54;;;;;;;15.52;10.50;;;11.00;99.90;;;;;;7341030;32;20377;-61
2022/05/17 03:11:55;;;;;;;11.88;9.90;;;11.00;99.90;;;;;;7363059;32;20130;-60
2022/05/17 03:15:57;;;;;;;14.65;10.65;;;11.00;99.90;;;;;;7359549;32;20107;-60
2022/05/17 03:19:59;;;;;;;13.77;9.82;;;10.90;99.90;;;;;;7346959;32;20455;-61
2022/05/17 03:24:01;;;;;;;15.43;10.63;;;10.80;99.90;;;;;;7362058;32;20125;-61
2022/05/17 03:28:03;;;;;;;13.88;10.73;;;10.90;99.90;;;;;;7357189;32;20122;-61
2022/05/17 03:32:05;;;;;;;14.65;9.60;;;10.80;99.90;;;;;;7358986;32;20238;-61
2022/05/17 03:36:08;;;;;;;12.37;8.77;;;10.80;99.90;;;;;;7360857;32;20311;-61
2022/05/17 03:40:11;;;;;;;10.88;9.02;;;10.70;99.90;;;;;;7360350;32;20115;-61
2022/05/17 03:44:13;;;;;;;12.70;9.05;;;10.70;99.90;;;;;;7366336;32;20249;-61
2022/05/17 03:48:15;;;;;;;10.27;8.85;;;10.70;99.90;;;;;;7348069;32;20213;-61
2022/05/17 03:52:16;;;;;;;14.30;9.60;;;10.70;99.90;;;;;;7365559;32;20238;-61
2022/05/17 03:56:18;;;;;;;13.57;9.70;;;10.70;99.90;;;;;;7354358;32;20154;-61
2022/05/17 04:00:20;;;;;;;13.95;10.48;;;10.70;99.90;;;;;;7356180;32;20096;-61
2022/05/17 04:04:22;;;;;;;15.10;10.40;;;10.70;99.90;;;;;;7355684;32;20689;-61
2022/05/17 04:08:24;;;;;;;14.45;9.93;;;10.80;99.90;;;;;;7359370;32;20229;-61
2022/05/17 04:12:26;;;;;;;14.82;10.18;;;10.90;99.90;;;;;;7361477;32;20111;-61
2022/05/17 04:16:36;;;;;;;18.37;10.02;;;10.90;99.90;;;;;;7356060;32;20183;-61
2022/05/17 04:20:38;;;;;;;14.52;10.07;;;10.90;99.90;;;;;;7363994;32;20553;-61
2022/05/17 04:24:41;;;;;;;15.68;10.45;;;11.00;99.90;;;;;;7361255;32;20193;-61
2022/05/17 04:28:43;;;;;;;14.68;10.27;;;11.20;99.90;;;;;;7364380;32;20156;-62
2022/05/17 04:32:45;;;;;;;16.20;10.40;;;11.20;99.90;;;;;;7367298;32;20209;-60
2022/05/17 04:36:46;;;;;;;18.42;10.82;;;11.40;99.90;;;;;;7362975;32;20110;-60
2022/05/17 04:40:48;;;;;;;16.40;10.27;;;11.50;99.90;;;;;;7354109;32;20114;-60
2022/05/17 04:44:50;;;;;;;13.85;10.43;;;11.70;99.90;;;;;;7352336;32;20102;-60
2022/05/17 04:48:52;;;;;;;16.00;11.07;;;12.00;99.90;;;;;;7361860;32;20111;-66
2022/05/17 04:52:53;;;;;;;13.27;10.77;;;12.30;99.90;;;;;;7362573;32;20138;-64
2022/05/17 04:56:55;;;;;;;12.80;10.45;;;12.40;99.90;;;;;;7363383;32;20213;-65
2022/05/17 05:00:57;;;;;;;15.82;10.88;;;12.60;99.90;;;;;;7345667;32;20226;-65
2022/05/17 05:04:59;;;;;;;24.33;19.77;;;12.80;99.90;;;;;;7345457;32;20119;-65
2022/05/17 05:09:00;;;;;;;16.58;12.45;;;13.00;99.90;;;;;;7358757;32;20682;-64
2022/05/17 05:13:02;;;;;;;18.37;12.57;;;13.10;99.90;;;;;;7351292;32;20280;-64
2022/05/17 05:17:04;;;;;;;15.82;12.45;;;13.30;99.90;;;;;;7360996;32;20254;-64
2022/05/17 05:21:09;;;;;;;17.25;13.62;;;13.50;99.90;;;;;;7371842;32;20128;-64
2022/05/17 05:25:13;;;;;;;20.48;13.77;;;13.60;99.90;;;;;;7364171;32;20223;-64
2022/05/17 05:29:16;;;;;;;20.73;13.15;;;13.80;99.90;;;;;;7359264;32;20217;-65
2022/05/17 05:33:17;;;;;;;20.77;14.63;;;13.90;99.90;;;;;;7362977;32;20537;-65
2022/05/17 05:37:19;;;;;;;19.25;13.68;;;14.10;99.90;;;;;;7354422;32;20199;-65
2022/05/17 05:41:21;;;;;;;19.05;12.40;;;14.30;99.90;;;;;;7354934;32;20198;-65
2022/05/17 05:45:22;;;;;;;21.70;12.45;;;14.50;99.90;;;;;;7360768;32;20106;-65
2022/05/17 05:49:25;;;;;;;18.10;11.00;;;14.60;99.90;;;;;;7364000;32;20201;-65
2022/05/17 05:53:26;;;;;;;16.33;11.50;;;14.80;99.90;;;;;;7354679;32;20138;-65
2022/05/17 05:57:28;;;;;;;17.25;11.23;;;14.90;99.90;;;;;;7347107;32;20304;-66
2022/05/17 06:01:30;;;;;;;18.90;9.60;;;15.00;99.90;;;;;;7356375;32;20266;-66
2022/05/17 06:05:32;;;;;;;16.40;9.90;;;15.10;99.90;;;;;;7355841;32;20177;-66
2022/05/17 06:09:34;;;;;;;14.57;9.15;;;15.20;99.90;;;;;;7362796;32;20582;-65
2022/05/17 06:13:36;;;;;;;14.00;9.27;;;15.30;99.90;;;;;;7357617;32;20148;-66
2022/05/17 06:17:39;;;;;;;14.38;9.68;;;15.40;99.90;;;;;;7359251;32;20125;-66
2022/05/17 06:21:40;;;;;;;17.42;9.18;;;15.60;99.90;;;;;;7350933;32;20527;-66
2022/05/17 06:25:42;;;;;;;18.42;9.13;;;15.70;99.90;;;;;;7359810;32;20134;-66
2022/05/17 06:29:44;;;;;;;15.18;8.35;;;15.80;99.90;;;;;;7366798;32;20111;-65
2022/05/17 06:33:46;;;;;;;16.30;10.07;;;15.90;99.90;;;;;;7355458;32;20129;-65
2022/05/17 06:37:49;;;;;;;15.60;7.93;;;15.90;99.90;;;;;;7357330;32;20417;-66
2022/05/17 06:41:51;;;;;;;14.25;8.93;;;16.00;99.90;;;;;;7357047;32;20125;-65
2022/05/17 06:45:52;;;;;;;14.48;7.90;;;16.20;99.90;;;;;;7352159;32;20141;-66
2022/05/17 06:49:54;;;;;;;14.63;8.45;;;16.30;99.90;;;;;;7356558;32;20119;-66
2022/05/17 06:53:56;;;;;;;13.35;8.93;;;16.40;99.90;;;;;;7359243;32;20130;-66
2022/05/17 06:57:57;;;;;;;12.00;8.20;;;16.40;99.90;;;;;;7343820;32;20111;-65
2022/05/17 07:01:59;;;;;;;14.82;9.13;;;16.50;99.90;;;;;;7337956;32;20120;-66
2022/05/17 07:06:02;;;;;;;14.30;8.40;;;16.80;99.90;;;;;;7357457;32;20734;-66
2022/05/17 07:14:25;;;;;;;16.73;8.07;;;17.60;99.90;;;;;;7365828;32;20625;-66
2022/05/17 07:18:29;;;;;;;16.25;8.55;;;18.00;99.90;;;;;;7356092;32;20141;-66
2022/05/17 07:22:31;;;;;;;10.65;7.00;;;18.30;99.90;;;;;;7354910;32;20129;-67
2022/05/17 07:26:32;;;;;;;14.70;7.72;;;18.60;99.90;;;;;;7352718;32;20244;-67
2022/05/17 07:30:34;;;;;;;18.00;8.55;;;18.70;99.90;;;;;;7355441;32;20154;-66
2022/05/17 07:34:36;;;;;;;19.25;7.72;;;18.80;99.90;;;;;;7359315;32;20236;-66
2022/05/17 07:38:38;;;;;;;13.90;7.53;;;18.80;99.90;;;;;;7361586;32;20233;-67
2022/05/17 07:42:40;;;;;;;16.98;8.10;;;18.90;99.90;;;;;;7339402;32;20624;-66
2022/05/17 07:46:42;;;;;;;16.58;8.30;;;18.90;99.90;;;;;;7351016;32;20609;-67
2022/05/17 07:50:43;;;;;;;14.87;7.40;;;18.90;99.90;;;;;;7354835;32;20213;-66
2022/05/17 07:54:45;;;;;;;14.73;7.57;;;18.90;99.90;;;;;;7360483;32;20134;-66
2022/05/17 07:58:47;;;;;;;16.15;7.12;;;18.90;99.90;;;;;;7356154;32;20103;-66
2022/05/17 08:02:49;;;;;;;12.93;7.65;;;18.80;99.90;;;;;;7344316;32;20133;-66
2022/05/17 08:06:52;;;;;;;15.65;8.52;;;18.80;99.90;;;;;;7356829;32;20130;-66
2022/05/17 08:10:54;;;;;;;13.13;7.53;;;18.80;99.90;;;;;;7359421;32;20355;-65
2022/05/17 08:14:55;;;;;;;17.00;8.05;;;18.90;99.90;;;;;;7351339;32;20213;-65
2022/05/17 08:18:57;;;;;;;10.55;6.50;;;19.00;99.90;;;;;;7355264;32;20209;-66
2022/05/17 08:22:59;;;;;;;12.77;7.80;;;19.30;99.90;;;;;;7347395;32;20230;-67
2022/05/17 08:31:21;;;;;;;16.48;7.97;;;19.90;99.90;;;;;;7351976;32;20129;-66
2022/05/17 08:35:23;;;;;;;15.18;7.50;;;19.90;99.90;;;;;;7353246;32;20212;-66
2022/05/17 08:39:28;;;;;;;14.55;7.22;;;20.10;99.90;;;;;;7339138;32;20478;-66
2022/05/17 08:43:55;;;;;;;17.42;7.25;;;20.20;99.90;;;;;;7348993;32;20131;-66
2022/05/17 08:47:57;;;;;;;13.23;6.90;;;20.30;99.90;;;;;;7343128;32;20779;-66
2022/05/17 08:52:07;;;;;;;11.12;7.18;;;20.40;99.90;;;;;;7350103;32;20225;-67
2022/05/17 08:56:10;;;;;;;14.63;6.95;;;20.40;99.90;;;;;;7353037;32;20191;-66
2022/05/17 09:00:24;;;;;;;14.52;7.62;;;20.40;99.90;;;;;;7336269;32;20111;-66
2022/05/17 09:05:05;;;;;;;12.90;6.32;;;20.40;99.90;;;;;;7348773;32;20293;-65
2022/05/17 09:09:15;;;;;;;13.18;6.60;;;20.40;99.90;;;;;;7273935;32;20134;-66
2022/05/17 09:13:28;;;;;;;17.65;6.12;;;20.50;99.90;;;;;;7358562;32;20106;-66
2022/05/17 09:17:30;;;;;;;10.30;6.50;;;20.60;99.90;;;;;;7352354;32;20115;-65
2022/05/17 09:21:43;;;;;;;15.90;6.37;;;20.50;99.90;;;;;;7358783;32;20119;-67
2022/05/17 09:26:17;;;;;;;18.02;6.43;;;20.50;99.90;;;;;;7355690;32;20161;-66
2022/05/17 09:30:22;;;;;;;11.93;6.20;;;20.40;99.90;;;;;;7357800;32;20111;-67
2022/05/17 09:34:44;;;;;;;12.55;6.10;;;20.40;99.90;;;;;;7363792;32;20132;-67
2022/05/17 09:38:48;;;;;;;8.45;4.25;;;20.30;99.90;;;;;;7343248;32;20111;-66
2022/05/17 09:43:00;;;;;;;12.50;5.03;;;20.30;99.90;;;;;;7353813;32;20514;-66
2022/05/17 09:47:06;;;;;;;11.85;5.15;;;20.30;99.90;;;;;;7344482;32;20642;-66
2022/05/17 09:55:55;;;;;;;9.98;3.92;;;20.00;99.90;;;;;;7361751;32;20138;-66
2022/05/17 10:00:12;;;;;;;9.32;3.53;;;20.10;99.90;;;;;;7355715;32;21000;-66
2022/05/17 10:04:20;;;;;;;10.50;3.00;;;20.30;99.90;;;;;;7353715;32;20187;-66
2022/05/17 10:08:23;;;;;;;10.85;3.10;;;20.50;99.90;;;;;;7347378;32;20107;-67
2022/05/17 10:12:30;;;;;;;8.75;2.67;;;20.50;99.90;;;;;;7355407;32;20551;-66
2022/05/17 10:16:47;;;;;;;6.57;2.67;;;20.60;99.90;;;;;;7340264;32;20170;-67
2022/05/17 10:20:54;;;;;;;10.93;2.93;;;20.60;99.90;;;;;;7339162;32;20111;-67
2022/05/17 10:25:04;;;;;;;;;;;20.60;99.90;;;;;;7354319;32;20274;-69
2022/05/17 10:29:29;;;;;;;8.82;2.00;;;20.80;99.90;;;;;;7352856;32;20041;-66
2022/05/17 10:33:54;;;;;;;7.65;1.87;;;21.00;99.90;;;;;;7341921;32;20338;-66
2022/05/17 10:38:18;;;;;;;6.87;1.80;;;21.00;99.90;;;;;;7340108;32;21963;-65
2022/05/17 10:42:21;;;;;;;8.35;1.80;;;21.00;99.90;;;;;;7359460;32;20675;-65
2022/05/17 10:46:31;;;;;;;6.93;2.58;;;21.00;99.90;;;;;;7357503;32;20131;-65
2022/05/17 10:50:58;;;;;;;5.50;1.75;;;21.00;99.90;;;;;;7360807;32;20286;-66
2022/05/17 10:55:11;;;;;;;6.40;2.00;;;21.00;99.90;;;;;;7356983;32;20114;-65
2022/05/17 10:59:38;;;;;;;8.77;2.53;;;21.20;99.90;;;;;;7355159;32;20201;-66
2022/05/17 11:04:01;;;;;;;9.35;2.92;;;21.00;99.90;;;;;;7353666;32;20252;-66
2022/05/17 11:08:12;;;;;;;7.78;2.70;;;20.50;99.90;;;;;;7338588;32;20115;-66
2022/05/17 11:12:20;;;;;;;10.32;2.75;;;20.40;99.90;;;;;;7341762;32;20612;-66
2022/05/17 11:16:30;;;;;;;;;;;20.50;99.90;;;;;;7352219;32;20640;-65
2022/05/17 11:20:38;;;;;;;6.70;1.67;;;20.50;99.90;;;;;;7354340;32;20536;-66
2022/05/17 11:24:53;;;;;;;8.80;1.75;;;20.50;99.90;;;;;;7338961;32;20107;-66
2022/05/17 11:29:29;;;;;;;8.18;1.85;;;20.40;99.90;;;;;;7352353;32;20255;-65
2022/05/17 11:33:40;;;;;;;8.18;2.10;;;20.50;99.90;;;;;;7340880;32;20256;-65
2022/05/17 11:37:41;;;;;;;8.18;2.20;;;20.50;99.90;;;;;;7353471;32;20362;-65
2022/05/17 11:41:48;;;;;;;5.50;2.20;;;20.50;99.90;;;;;;7351559;32;20229;-67
2022/05/17 11:45:50;;;;;;;11.13;3.37;;;20.30;99.90;;;;;;7360582;32;20106;-66
2022/05/17 11:49:52;;;;;;;5.50;2.62;;;20.20;99.90;;;;;;7340877;32;20613;-67
2022/05/17 11:53:53;;;;;;;10.15;2.87;;;20.20;99.90;;;;;;7339588;32;20192;-66
2022/05/17 11:57:57;;;;;;;12.48;3.12;;;20.10;99.90;;;;;;7355463;32;20215;-66
2022/05/17 12:02:18;;;;;;;11.12;3.33;;;20.10;99.90;;;;;;7307980;32;20113;-66
2022/05/17 12:06:48;;;;;;;12.37;3.00;;;20.10;99.90;;;;;;7227518;32;20470;-66
2022/05/17 12:11:12;;;;;;;8.93;3.12;;;20.20;99.90;;;;;;7222388;32;20195;-66
2022/05/17 12:15:34;;;;;;;9.70;3.22;;;20.20;99.90;;;;;;7225645;32;20105;-65
2022/05/17 12:19:54;;;;;;;9.93;3.00;;;20.20;99.90;;;;;;7263955;32;20258;-67
2022/05/17 12:24:18;;;;;;;8.00;2.70;;;20.30;99.90;;;;;;7230646;32;20452;-66
2022/05/17 12:28:26;;;;;;;8.20;2.58;;;20.50;99.90;;;;;;7228010;32;20131;-65
2022/05/17 12:32:28;;;;;;;7.07;2.20;;;20.70;99.90;;;;;;7223858;32;20130;-66
2022/05/17 12:36:31;;;;;;;8.60;2.78;;;20.80;99.90;;;;;;7286267;32;20220;-66
2022/05/17 12:45:00;;;;;;;9.30;2.50;;;21.10;99.90;;;;;;7234098;32;20104;-66
2022/05/17 12:49:16;;;;;;;8.90;2.17;;;21.30;99.90;;;;;;7264226;32;20154;-67
2022/05/17 12:53:22;;;;;;;7.25;2.47;;;21.40;99.90;;;;;;7231923;32;20112;-66
2022/05/17 12:57:31;;;;;;;13.88;2.28;;;21.30;99.90;;;;;;7231024;32;20192;-65
2022/05/17 13:01:41;;;;;;;6.50;2.40;;;21.30;99.90;;;;;;7320940;32;20224;-65
2022/05/17 13:05:48;;;;;;;8.00;2.20;;;21.50;99.90;;;;;;7355128;32;20221;-66
2022/05/17 13:10:05;;;;;;;10.15;2.40;;;21.80;99.90;;;;;;7360483;32;20250;-65
2022/05/17 13:14:22;;;;;;;4.53;1.50;;;22.10;99.90;;;;;;7352884;32;20300;-66
2022/05/17 13:18:31;;;;;;;7.85;2.03;;;22.10;99.90;;;;;;7356906;32;20138;-67
2022/05/17 13:22:33;;;;;;;6.40;1.75;;;22.30;99.90;;;;;;7362943;32;20193;-67
2022/05/17 13:26:42;;;;;;;3.55;1.65;;;22.30;99.90;;;;;;7354640;32;20491;-66
2022/05/17 13:30:48;;;;;;;6.28;2.00;;;22.50;99.90;;;;;;7362117;32;20272;-67
2022/05/17 13:35:08;;;;;;;9.55;2.28;;;22.40;99.90;;;;;;7348728;32;20267;-65
2022/05/17 13:39:23;;;;;;;8.82;2.10;;;22.30;99.90;;;;;;7353879;32;20594;-65
2022/05/17 13:43:37;;;;;;;7.72;1.80;;;22.30;99.90;;;;;;7352071;32;20534;-66
2022/05/17 13:47:44;;;;;;;6.20;1.90;;;22.40;99.90;;;;;;7331195;32;20210;-67
2022/05/17 13:52:03;;;;;;;5.50;1.83;;;22.60;99.90;;;;;;7336148;32;20163;-65
2022/05/17 13:56:05;;;;;;;9.70;2.17;;;22.60;99.90;;;;;;7361189;32;20122;-65
2022/05/17 14:00:23;;;;;;;6.93;1.73;;;22.50;99.90;;;;;;7343420;32;20181;-66
2022/05/17 14:04:44;;;;;;;7.97;2.08;;;22.60;99.90;;;;;;7345123;32;20111;-65
2022/05/17 14:13:25;;;;;;;9.13;2.70;;;22.70;99.90;;;;;;7365584;32;20111;-65
2022/05/17 14:17:33;;;;;;;7.07;1.95;;;22.70;99.90;;;;;;7361348;32;20349;-65
2022/05/17 14:21:34;;;;;;;4.22;2.00;;;22.80;99.90;;;;;;7353606;32;20129;-65
2022/05/17 14:25:36;;;;;;;6.07;1.98;;;23.00;99.90;;;;;;7365801;32;20234;-64
2022/05/17 14:29:39;;;;;;;7.95;1.77;;;23.00;99.90;;;;;;7365006;32;20194;-65
2022/05/17 14:33:40;;;;;;;7.40;4.53;;;22.90;99.90;;;;;;7361035;32;20280;-66
2022/05/17 14:37:42;;;;;;;3.62;1.10;;;22.90;99.90;;;;;;7360303;32;20601;-66
2022/05/17 14:41:48;;;;;;;4.60;1.17;;;23.10;99.90;;;;;;7350688;32;20315;-65
2022/05/17 14:45:56;;;;;;;4.80;1.30;;;23.30;99.90;;;;;;7345042;32;20418;-66
2022/05/17 14:50:08;;;;;;;6.28;1.70;;;23.30;99.90;;;;;;7355446;32;20367;-65
2022/05/17 14:54:10;;;;;;;4.15;1.83;;;23.50;99.90;;;;;;7346629;32;20240;-65
2022/05/17 14:58:12;;;;;;;5.22;1.30;;;23.80;99.90;;;;;;7365548;32;20115;-65
2022/05/17 15:02:15;;;;;;;2.83;0.93;;;24.00;99.90;;;;;;7344316;32;20107;-65
2022/05/17 15:06:17;;;;;;;6.85;1.10;;;24.20;99.90;;;;;;7346099;32;20111;-65
2022/05/17 15:10:22;;;;;;;5.70;1.00;;;24.10;99.90;;;;;;7362779;32;20395;-66
2022/05/17 15:14:24;;;;;;;4.18;1.00;;;23.90;99.90;;;;;;7341176;32;20516;-66
2022/05/17 15:18:27;;;;;;;3.03;0.93;;;24.00;99.90;;;;;;7352829;32;20521;-63
2022/05/17 15:22:34;;;;;;;7.97;1.70;;;24.30;99.90;;;;;;7345410;32;20378;-62
2022/05/17 15:26:37;;;;;;;3.83;1.20;;;24.20;99.90;;;;;;7357580;32;20776;-61
2022/05/17 15:30:44;;;;;;;5.95;1.12;;;24.10;99.90;;;;;;7353787;32;20298;-65
2022/05/17 15:34:46;;;;;;;3.80;0.90;;;24.10;99.90;;;;;;7351570;32;20145;-65
2022/05/17 15:38:48;;;;;;;3.55;0.90;;;23.90;99.90;;;;;;7353703;32;20214;-64
2022/05/17 15:42:50;;;;;;;2.62;0.90;;;23.70;99.90;;;;;;7362492;32;20470;-65
2022/05/17 15:55:42;;;;;;;4.32;1.20;;;24.10;99.90;;;;;;7361002;32;20173;-64
2022/05/17 15:59:44;;;;;;;8.93;1.20;;;24.10;99.90;;;;;;7351197;32;20259;-66
2022/05/17 16:03:48;;;;;;;2.28;1.05;;;23.90;99.90;;;;;;7348031;32;20118;-59
2022/05/17 16:08:02;;;;;;;5.80;0.90;;;23.80;99.90;;;;;;7355033;32;20835;-58
2022/05/17 16:12:04;;;;;;;6.47;1.00;;;23.80;99.90;;;;;;7350956;32;20815;-58
2022/05/17 16:16:06;;;;;;;3.97;0.95;;;23.70;99.90;;;;;;7354953;32;20181;-66
2022/05/17 16:20:18;;;;;;;2.92;1.02;;;23.70;99.90;;;;;;7335964;32;20186;-67
2022/05/17 16:24:22;;;;;;;3.78;0.95;;;23.80;99.90;;;;;;7352807;32;20273;-67
2022/05/17 16:28:24;;;;;;;4.70;1.00;;;23.80;99.90;;;;;;7351503;32;20130;-69
2022/05/17 16:32:26;;;;;;;5.43;1.12;;;23.70;99.90;;;;;;7345004;32;20111;-68
2022/05/17 16:36:34;;;;;;;4.28;1.05;;;23.50;99.90;;;;;;7343733;32;20111;-67
2022/05/17 16:40:38;;;;;;;3.25;1.25;;;23.40;99.90;;;;;;7336992;32;20500;-66
2022/05/17 16:44:40;;;;;;;3.87;1.15;;;23.50;99.90;;;;;;7334901;32;20111;-67
2022/05/17 16:48:42;;;;;;;4.65;0.98;;;23.60;99.90;;;;;;7352389;32;20120;-66
2022/05/17 16:52:44;;;;;;;3.55;1.25;;;23.40;99.90;;;;;;7339239;32;20111;-66
2022/05/17 16:56:45;;;;;;;3.53;1.20;;;23.40;99.90;;;;;;7338122;32;20591;-67
2022/05/17 17:00:47;;;;;;;3.92;1.10;;;23.50;99.90;;;;;;7358823;32;20137;-67
2022/05/17 17:04:49;;;;;;;3.83;1.08;;;23.40;99.90;;;;;;7363119;32;20782;-66
2022/05/17 17:08:51;;;;;;;3.00;1.12;;;23.20;99.90;;;;;;7348000;32;20110;-65
2022/05/17 17:12:53;;;;;;;3.65;2.10;;;23.10;99.90;;;;;;7358149;32;20115;-66
2022/05/17 17:16:55;;;;;;;4.10;1.33;;;23.00;99.90;;;;;;7343099;32;20174;-67
2022/05/17 17:20:57;;;;;;;2.35;1.15;;;22.90;99.90;;;;;;7336881;32;22277;-65
2022/05/17 17:24:58;;;;;;;4.62;1.15;;;22.70;99.90;;;;;;7342333;32;20219;-67
2022/05/17 17:29:01;;;;;;;2.45;0.88;;;22.60;99.90;;;;;;7331169;32;20194;-68
2022/05/17 17:37:26;;;;;;;4.07;1.20;;;22.50;99.90;;;;;;7368849;32;20136;-68
2022/05/17 17:41:28;;;;;;;7.45;1.15;;;22.40;99.90;;;;;;7344361;32;20594;-70
2022/05/17 17:45:32;;;;;;;3.28;1.00;;;22.30;99.90;;;;;;7347639;32;20111;-69
2022/05/17 17:49:36;;;;;;;4.43;1.10;;;22.20;99.90;;;;;;7333329;32;20357;-68
2022/05/17 17:53:39;;;;;;;5.00;1.10;;;22.10;99.90;;;;;;7349777;32;20282;-69
2022/05/17 17:57:41;;;;;;;5.45;1.30;;;22.10;99.90;;;;;;7343759;32;20114;-68
2022/05/17 18:01:46;;;;;;;11.52;7.00;;;21.90;99.90;;;;;;7364899;32;20757;-69
2022/05/17 18:05:47;;;;;;;5.22;1.50;;;21.90;99.90;;;;;;7329622;32;20141;-68
2022/05/17 18:09:49;;;;;;;4.03;1.00;;;21.80;99.90;;;;;;7359047;32;20217;-68
2022/05/17 18:13:52;;;;;;;5.53;1.15;;;21.70;99.90;;;;;;7363225;32;20102;-68
2022/05/17 18:17:54;;;;;;;2.35;1.33;;;21.60;99.90;;;;;;7346442;32;20133;-68
2022/05/17 18:21:56;;;;;;;3.03;1.25;;;21.60;99.90;;;;;;7342811;32;20134;-69
2022/05/17 18:25:58;;;;;;;5.72;1.48;;;21.60;99.90;;;;;;7358879;32;22725;-68
2022/05/17 18:30:02;;;;;;;2.25;1.37;;;21.50;99.90;;;;;;7361980;32;20312;-68
2022/05/17 18:34:05;;;;;;;5.82;1.58;;;21.40;99.90;;;;;;7362169;32;20119;-67
2022/05/17 18:38:07;;;;;;;3.40;1.70;;;21.40;99.90;;;;;;7359001;32;20133;-68
2022/05/17 18:42:09;;;;;;;4.47;1.75;;;21.30;99.90;;;;;;7335621;32;20201;-67
2022/05/17 18:46:13;;;;;;;3.85;1.65;;;21.30;99.90;;;;;;7363028;32;20104;-68
2022/05/17 18:50:19;;;;;;;9.35;1.62;;;21.20;99.90;;;;;;7361175;32;20464;-67
2022/05/17 18:54:20;;;;;;;4.60;1.80;;;21.10;99.90;;;;;;7359673;32;20107;-67
2022/05/17 18:58:23;;;;;;;5.87;1.65;;;21.00;99.90;;;;;;7332508;32;20110;-67
2022/05/17 19:02:26;;;;;;;3.58;2.20;;;20.90;99.90;;;;;;7302681;32;20108;-68
2022/05/17 19:06:28;;;;;;;6.60;2.08;;;20.90;99.90;;;;;;7231434;32;20195;-68
2022/05/17 19:14:52;;;;;;;6.07;2.37;;;20.80;99.90;;;;;;7279506;32;20109;-68
2022/05/17 19:19:00;;;;;;;5.68;2.47;;;20.60;99.90;;;;;;7230069;32;20254;-68
2022/05/17 19:23:04;;;;;;;5.25;2.08;;;20.50;99.90;;;;;;7283325;32;20170;-70
2022/05/17 19:27:07;;;;;;;4.50;1.90;;;20.50;99.90;;;;;;7284047;32;20112;-67
2022/05/17 19:31:10;;;;;;;6.05;2.17;;;20.30;99.90;;;;;;7281516;32;20297;-68
2022/05/17 19:35:24;;;;;;;7.90;2.15;;;20.20;99.90;;;;;;7232223;32;20127;-67
2022/05/17 19:39:27;;;;;;;12.02;2.15;;;20.20;99.90;;;;;;7228907;32;20132;-67
2022/05/17 19:43:29;;;;;;;5.82;2.30;;;20.00;99.90;;;;;;7235834;32;20392;-67
2022/05/17 19:47:31;;;;;;;5.72;2.30;;;20.00;99.90;;;;;;7238436;32;20126;-67
2022/05/17 19:51:32;;;;;;;6.65;2.37;;;19.90;99.90;;;;;;7283801;32;20204;-67
2022/05/17 19:55:35;;;;;;;7.57;2.70;;;19.80;99.90;;;;;;7232232;32;20829;-66
2022/05/17 19:59:37;;;;;;;8.57;2.78;;;19.80;99.90;;;;;;7227269;32;20547;-66
2022/05/17 20:03:38;;;;;;;7.93;2.50;;;19.70;99.90;;;;;;7261570;32;20325;-65
2022/05/17 20:07:40;;;;;;;6.07;2.30;;;19.70;99.90;;;;;;7286419;32;20135;-65
2022/05/17 20:11:42;;;;;;;10.18;2.50;;;19.70;99.90;;;;;;7286031;32;20105;-63
2022/05/17 20:15:45;;;;;;;7.62;2.42;;;19.60;99.90;;;;;;7232450;32;20140;-66
2022/05/17 20:19:46;;;;;;;7.15;2.20;;;19.60;99.90;;;;;;7278978;32;20127;-66
2022/05/17 20:23:51;;;;;;;6.45;2.37;;;19.50;99.90;;;;;;7230633;32;20577;-67
2022/05/17 20:27:52;;;;;;;5.53;2.28;;;19.50;99.90;;;;;;7273967;32;20230;-67
2022/05/17 20:31:54;;;;;;;8.82;2.72;;;19.40;99.90;;;;;;7283834;32;20505;-67
2022/05/17 20:35:57;;;;;;;5.45;2.40;;;19.30;99.90;;;;;;7285845;32;20115;-67
2022/05/17 20:39:59;;;;;;;5.60;2.47;;;19.30;99.90;;;;;;7281112;32;20233;-67
2022/05/17 20:44:01;;;;;;;5.05;2.20;;;19.30;99.90;;;;;;7233774;32;20467;-66
2022/05/17 20:48:19;;;;;;;6.18;2.22;;;19.20;99.90;;;;;;7229823;32;20899;-66
2022/05/17 20:52:20;;;;;;;5.85;2.45;;;19.20;99.90;;;;;;7238386;32;20113;-67
2022/05/17 20:56:27;;;;;;;3.35;2.30;;;19.10;99.90;;;;;;7271938;32;20317;-66
2022/05/17 21:00:28;;;;;;;8.67;3.07;;;19.10;99.90;;;;;;7239416;32;20276;-67
2022/05/17 21:04:31;;;;;;;5.47;2.40;;;19.00;99.90;;;;;;7367236;32;20110;-66
2022/05/17 21:08:33;;;;;;;5.10;2.70;;;19.00;99.90;;;;;;7362088;32;22200;-67
2022/05/17 21:12:36;;;;;;;6.45;3.15;;;19.00;99.90;;;;;;7357702;32;20111;-66
2022/05/17 21:16:39;;;;;;;6.60;2.80;;;19.00;99.90;;;;;;7364895;32;20126;-67
2022/05/17 21:20:40;;;;;;;5.60;2.67;;;19.00;99.90;;;;;;7358270;32;20133;-65
2022/05/17 21:24:48;;;;;;;5.03;3.20;;;19.10;99.90;;;;;;7366421;32;20111;-67
2022/05/17 21:28:49;;;;;;;5.93;2.65;;;19.10;99.90;;;;;;7355432;32;20145;-62
2022/05/17 21:32:51;;;;;;;6.15;2.62;;;19.10;99.90;;;;;;7346054;32;20833;-63
2022/05/17 21:36:53;;;;;;;6.37;2.92;;;19.10;99.90;;;;;;7347992;32;20419;-63
2022/05/17 21:40:56;;;;;;;6.12;2.60;;;19.10;99.90;;;;;;7362305;32;20475;-62
2022/05/17 21:44:58;;;;;;;4.43;2.20;;;19.10;99.90;;;;;;7366674;32;20134;-63
2022/05/17 21:48:59;;;;;;;6.00;2.67;;;19.00;99.90;;;;;;7352240;32;20206;-63